Terminal Aerodrome Forecast
Issued by NWS

Home | Current Version | Previous Version | Graphics & Text | Print | Product List | Glossary On
Versions: 1 2 3 4 5 6 7 8 9 10 11 12 13 14 15 16
096
FTUS43 KICT 230808 AAA
TAFSLN
TAF AMD
KSLN 230808Z 2308/2406 18010KT P6SM VCSH SCT070 OVC250
     FM231200 18012KT P6SM BKN250
     FM231600 19015G22KT P6SM SCT250
     FM240400 16008KT P6SM BKN250=

USA.gov is the U.S. government's official web portal to all federal, state and local government web resources and services.